sensor_id;sensor_type;location;lat;lon;timestamp;temperature;humidity
14475;DHT22;7323;50.848;4.334;2022-10-26T00:00:37;16.80;17.40
14475;DHT22;7323;50.848;4.334;2022-10-26T00:03:03;16.80;15.90
14475;DHT22;7323;50.848;4.334;2022-10-26T00:05:32;16.80;12.70
14475;DHT22;7323;50.848;4.334;2022-10-26T00:07:57;16.70;14.80
14475;DHT22;7323;50.848;4.334;2022-10-26T00:10:23;16.70;16.30
14475;DHT22;7323;50.848;4.334;2022-10-26T00:12:50;16.60;16.90
14475;DHT22;7323;50.848;4.334;2022-10-26T00:15:17;16.70;15.60
14475;DHT22;7323;50.848;4.334;2022-10-26T00:17:43;16.70;15.70
14475;DHT22;7323;50.848;4.334;2022-10-26T00:20:09;16.80;15.80
14475;DHT22;7323;50.848;4.334;2022-10-26T00:22:35;16.80;13.70
14475;DHT22;7323;50.848;4.334;2022-10-26T00:25:00;16.90;13.60
14475;DHT22;7323;50.848;4.334;2022-10-26T00:27:27;16.90;12.20
14475;DHT22;7323;50.848;4.334;2022-10-26T00:29:53;16.80;12.40
14475;DHT22;7323;50.848;4.334;2022-10-26T00:32:18;17.00;10.70
14475;DHT22;7323;50.848;4.334;2022-10-26T00:34:47;16.90;9.40
14475;DHT22;7323;50.848;4.334;2022-10-26T00:37:14;16.90;8.90
14475;DHT22;7323;50.848;4.334;2022-10-26T00:39:42;16.90;8.70
14475;DHT22;7323;50.848;4.334;2022-10-26T00:42:19;17.00;6.80
14475;DHT22;7323;50.848;4.334;2022-10-26T00:50:40;17.10;1.00
14475;DHT22;7323;50.848;4.334;2022-10-26T00:53:07;17.10;1.00
14475;DHT22;7323;50.848;4.334;2022-10-26T00:55:40;17.00;1.00
14475;DHT22;7323;50.848;4.334;2022-10-26T00:58:09;17.10;1.00
14475;DHT22;7323;50.848;4.334;2022-10-26T01:00:35;17.00;1.20
14475;DHT22;7323;50.848;4.334;2022-10-26T01:03:04;17.00;1.00
14475;DHT22;7323;50.848;4.334;2022-10-26T01:05:31;17.00;1.00
14475;DHT22;7323;50.848;4.334;2022-10-26T01:07:57;17.00;1.00
14475;DHT22;7323;50.848;4.334;2022-10-26T01:10:24;16.90;1.10
14475;DHT22;7323;50.848;4.334;2022-10-26T01:12:50;16.90;2.10
14475;DHT22;7323;50.848;4.334;2022-10-26T01:15:16;16.90;3.10
14475;DHT22;7323;50.848;4.334;2022-10-26T01:17:58;16.90;2.90
14475;DHT22;7323;50.848;4.334;2022-10-26T01:23:19;17.00;1.00
14475;DHT22;7323;50.848;4.334;2022-10-26T01:30:59;16.90;1.00
14475;DHT22;7323;50.848;4.334;2022-10-26T01:33:30;16.90;1.00
14475;DHT22;7323;50.848;4.334;2022-10-26T01:36:09;16.90;1.00
14475;DHT22;7323;50.848;4.334;2022-10-26T01:43:41;16.80;3.30
14475;DHT22;7323;50.848;4.334;2022-10-26T01:46:09;16.70;2.70
14475;DHT22;7323;50.848;4.334;2022-10-26T01:48:36;16.70;2.40
14475;DHT22;7323;50.848;4.334;2022-10-26T01:51:03;16.70;1.80
14475;DHT22;7323;50.848;4.334;2022-10-26T01:53:30;16.70;1.50
14475;DHT22;7323;50.848;4.334;2022-10-26T01:55:56;16.70;2.10
14475;DHT22;7323;50.848;4.334;2022-10-26T02:06:38;16.70;1.00
14475;DHT22;7323;50.848;4.334;2022-10-26T02:09:09;16.70;1.00
14475;DHT22;7323;50.848;4.334;2022-10-26T02:11:45;16.80;1.00
14475;DHT22;7323;50.848;4.334;2022-10-26T02:16:56;16.90;1.00
14475;DHT22;7323;50.848;4.334;2022-10-26T02:19:44;16.90;1.00
14475;DHT22;7323;50.848;4.334;2022-10-26T02:24:46;16.70;1.00
14475;DHT22;7323;50.848;4.334;2022-10-26T02:27:18;16.80;1.00
14475;DHT22;7323;50.848;4.334;2022-10-26T02:29:46;16.80;1.00
14475;DHT22;7323;50.848;4.334;2022-10-26T02:32:13;16.80;1.00
14475;DHT22;7323;50.848;4.334;2022-10-26T02:34:43;16.90;1.00
14475;DHT22;7323;50.848;4.334;2022-10-26T02:37:11;17.00;1.00
14475;DHT22;7323;50.848;4.334;2022-10-26T02:39:38;16.90;1.00
14475;DHT22;7323;50.848;4.334;2022-10-26T02:42:08;16.80;1.00
14475;DHT22;7323;50.848;4.334;2022-10-26T02:44:45;16.90;1.00
14475;DHT22;7323;50.848;4.334;2022-10-26T02:47:13;16.80;1.00
14475;DHT22;7323;50.848;4.334;2022-10-26T02:49:38;17.00;1.00
14475;DHT22;7323;50.848;4.334;2022-10-26T02:52:21;16.90;1.00
14475;DHT22;7323;50.848;4.334;2022-10-26T02:54:58;17.00;1.00
14475;DHT22;7323;50.848;4.334;2022-10-26T02:57:39;17.00;1.00
14475;DHT22;7323;50.848;4.334;2022-10-26T03:00:14;17.00;1.00
14475;DHT22;7323;50.848;4.334;2022-10-26T03:02:45;17.00;1.00
14475;DHT22;7323;50.848;4.334;2022-10-26T03:05:41;17.00;1.00
14475;DHT22;7323;50.848;4.334;2022-10-26T03:08:07;17.10;1.00
14475;DHT22;7323;50.848;4.334;2022-10-26T03:10:37;17.10;1.00
14475;DHT22;7323;50.848;4.334;2022-10-26T03:13:04;17.20;1.00
14475;DHT22;7323;50.848;4.334;2022-10-26T03:15:30;17.20;1.00
14475;DHT22;7323;50.848;4.334;2022-10-26T03:17:55;17.30;1.00
14475;DHT22;7323;50.848;4.334;2022-10-26T03:20:21;17.30;1.00
14475;DHT22;7323;50.848;4.334;2022-10-26T03:22:47;17.40;1.00
14475;DHT22;7323;50.848;4.334;2022-10-26T03:25:13;17.20;1.00
14475;DHT22;7323;50.848;4.334;2022-10-26T03:27:40;17.30;1.00
14475;DHT22;7323;50.848;4.334;2022-10-26T03:30:06;17.20;1.00
14475;DHT22;7323;50.848;4.334;2022-10-26T03:32:32;17.20;1.00
14475;DHT22;7323;50.848;4.334;2022-10-26T03:34:58;17.10;1.00
14475;DHT22;7323;50.848;4.334;2022-10-26T03:37:23;17.10;1.00
14475;DHT22;7323;50.848;4.334;2022-10-26T03:39:49;17.00;1.00
14475;DHT22;7323;50.848;4.334;2022-10-26T03:42:14;17.10;1.00
14475;DHT22;7323;50.848;4.334;2022-10-26T03:44:40;17.00;1.00
14475;DHT22;7323;50.848;4.334;2022-10-26T03:47:06;16.90;1.00
14475;DHT22;7323;50.848;4.334;2022-10-26T03:49:32;16.80;1.00
14475;DHT22;7323;50.848;4.334;2022-10-26T03:51:57;16.80;3.00
14475;DHT22;7323;50.848;4.334;2022-10-26T03:54:23;16.70;4.00
14475;DHT22;7323;50.848;4.334;2022-10-26T03:56:49;16.80;5.30
14475;DHT22;7323;50.848;4.334;2022-10-26T03:59:15;17.00;4.30
14475;DHT22;7323;50.848;4.334;2022-10-26T04:01:40;16.80;6.50
14475;DHT22;7323;50.848;4.334;2022-10-26T04:04:06;16.70;15.50
14475;DHT22;7323;50.848;4.334;2022-10-26T04:06:35;16.60;23.70
14475;DHT22;7323;50.848;4.334;2022-10-26T04:09:00;16.60;28.50
14475;DHT22;7323;50.848;4.334;2022-10-26T04:11:48;16.60;31.80
14475;DHT22;7323;50.848;4.334;2022-10-26T04:14:14;16.70;33.50
14475;DHT22;7323;50.848;4.334;2022-10-26T04:16:39;16.70;36.30
14475;DHT22;7323;50.848;4.334;2022-10-26T04:19:05;16.60;40.80
14475;DHT22;7323;50.848;4.334;2022-10-26T04:21:31;16.50;46.70
14475;DHT22;7323;50.848;4.334;2022-10-26T04:24:00;16.50;51.50
14475;DHT22;7323;50.848;4.334;2022-10-26T04:26:27;16.50;53.50
14475;DHT22;7323;50.848;4.334;2022-10-26T04:28:53;16.40;55.90
14475;DHT22;7323;50.848;4.334;2022-10-26T04:31:18;16.40;57.70
14475;DHT22;7323;50.848;4.334;2022-10-26T04:33:44;16.40;61.00
14475;DHT22;7323;50.848;4.334;2022-10-26T04:36:10;16.40;61.60
14475;DHT22;7323;50.848;4.334;2022-10-26T04:38:36;16.40;62.80
14475;DHT22;7323;50.848;4.334;2022-10-26T04:41:01;16.40;61.70
14475;DHT22;7323;50.848;4.334;2022-10-26T04:43:27;16.40;61.80
14475;DHT22;7323;50.848;4.334;2022-10-26T04:45:57;16.30;61.00
14475;DHT22;7323;50.848;4.334;2022-10-26T04:48:22;16.40;59.50
14475;DHT22;7323;50.848;4.334;2022-10-26T04:50:49;16.40;58.10
14475;DHT22;7323;50.848;4.334;2022-10-26T04:53:14;16.50;58.60
14475;DHT22;7323;50.848;4.334;2022-10-26T04:55:41;16.40;58.10
14475;DHT22;7323;50.848;4.334;2022-10-26T04:58:07;16.50;58.70
14475;DHT22;7323;50.848;4.334;2022-10-26T05:00:33;16.50;57.40
14475;DHT22;7323;50.848;4.334;2022-10-26T05:03:06;16.50;55.40
14475;DHT22;7323;50.848;4.334;2022-10-26T05:05:34;16.50;56.90
14475;DHT22;7323;50.848;4.334;2022-10-26T05:08:00;16.60;56.10
14475;DHT22;7323;50.848;4.334;2022-10-26T05:10:25;16.60;54.80
14475;DHT22;7323;50.848;4.334;2022-10-26T05:12:55;16.60;55.20
14475;DHT22;7323;50.848;4.334;2022-10-26T05:15:22;16.60;55.50
14475;DHT22;7323;50.848;4.334;2022-10-26T05:17:58;16.60;56.40
14475;DHT22;7323;50.848;4.334;2022-10-26T05:20:25;16.50;60.30
14475;DHT22;7323;50.848;4.334;2022-10-26T05:22:58;16.50;62.40
14475;DHT22;7323;50.848;4.334;2022-10-26T05:25:26;16.50;65.70
14475;DHT22;7323;50.848;4.334;2022-10-26T05:27:59;16.60;66.10
14475;DHT22;7323;50.848;4.334;2022-10-26T05:30:26;16.60;66.80
14475;DHT22;7323;50.848;4.334;2022-10-26T05:32:56;16.70;62.50
14475;DHT22;7323;50.848;4.334;2022-10-26T05:35:22;16.80;62.00
14475;DHT22;7323;50.848;4.334;2022-10-26T05:37:48;16.70;59.50
14475;DHT22;7323;50.848;4.334;2022-10-26T05:40:14;16.80;58.40
14475;DHT22;7323;50.848;4.334;2022-10-26T05:42:41;16.70;58.60
14475;DHT22;7323;50.848;4.334;2022-10-26T05:45:07;16.60;59.40
14475;DHT22;7323;50.848;4.334;2022-10-26T05:47:40;16.60;59.90
14475;DHT22;7323;50.848;4.334;2022-10-26T05:50:06;16.60;61.50
14475;DHT22;7323;50.848;4.334;2022-10-26T05:52:40;16.60;61.50
14475;DHT22;7323;50.848;4.334;2022-10-26T05:55:09;16.70;58.10
14475;DHT22;7323;50.848;4.334;2022-10-26T05:57:35;16.70;57.90
14475;DHT22;7323;50.848;4.334;2022-10-26T06:00:02;16.50;58.90
14475;DHT22;7323;50.848;4.334;2022-10-26T06:02:44;16.50;63.30
14475;DHT22;7323;50.848;4.334;2022-10-26T06:05:20;16.50;62.00
14475;DHT22;7323;50.848;4.334;2022-10-26T06:07:47;16.50;64.30
14475;DHT22;7323;50.848;4.334;2022-10-26T06:10:13;16.40;66.30
14475;DHT22;7323;50.848;4.334;2022-10-26T06:12:39;16.40;68.80
14475;DHT22;7323;50.848;4.334;2022-10-26T06:15:06;16.40;70.30
14475;DHT22;7323;50.848;4.334;2022-10-26T06:23:52;16.30;71.70
14475;DHT22;7323;50.848;4.334;2022-10-26T06:32:09;16.30;71.40
14475;DHT22;7323;50.848;4.334;2022-10-26T06:34:38;16.30;73.30
14475;DHT22;7323;50.848;4.334;2022-10-26T06:37:09;16.30;73.90
14475;DHT22;7323;50.848;4.334;2022-10-26T06:39:37;16.40;73.20
14475;DHT22;7323;50.848;4.334;2022-10-26T06:42:05;16.30;73.00
14475;DHT22;7323;50.848;4.334;2022-10-26T06:44:31;16.30;74.30
14475;DHT22;7323;50.848;4.334;2022-10-26T06:47:42;16.30;76.00
14475;DHT22;7323;50.848;4.334;2022-10-26T06:53:28;16.30;75.70
14475;DHT22;7323;50.848;4.334;2022-10-26T06:56:18;16.40;75.40
14475;DHT22;7323;50.848;4.334;2022-10-26T06:58:52;16.40;74.80
14475;DHT22;7323;50.848;4.334;2022-10-26T07:01:20;16.40;75.50
14475;DHT22;7323;50.848;4.334;2022-10-26T07:03:46;16.40;75.60
14475;DHT22;7323;50.848;4.334;2022-10-26T07:06:12;16.40;74.30
14475;DHT22;7323;50.848;4.334;2022-10-26T07:08:38;16.50;72.70
14475;DHT22;7323;50.848;4.334;2022-10-26T07:11:04;16.60;71.30
14475;DHT22;7323;50.848;4.334;2022-10-26T07:13:31;16.50;71.70
14475;DHT22;7323;50.848;4.334;2022-10-26T07:15:57;16.50;71.30
14475;DHT22;7323;50.848;4.334;2022-10-26T07:18:22;16.60;71.50
14475;DHT22;7323;50.848;4.334;2022-10-26T07:20:48;16.50;72.10
14475;DHT22;7323;50.848;4.334;2022-10-26T07:23:14;16.50;72.20
14475;DHT22;7323;50.848;4.334;2022-10-26T07:25:40;16.60;71.70
14475;DHT22;7323;50.848;4.334;2022-10-26T07:28:08;16.60;71.60
14475;DHT22;7323;50.848;4.334;2022-10-26T07:30:35;16.70;69.80
14475;DHT22;7323;50.848;4.334;2022-10-26T07:33:03;16.70;68.10
14475;DHT22;7323;50.848;4.334;2022-10-26T07:35:30;16.80;67.60
14475;DHT22;7323;50.848;4.334;2022-10-26T07:37:57;16.80;68.60
14475;DHT22;7323;50.848;4.334;2022-10-26T07:40:32;16.90;66.40
14475;DHT22;7323;50.848;4.334;2022-10-26T07:43:01;16.90;66.10
14475;DHT22;7323;50.848;4.334;2022-10-26T07:45:28;16.90;67.40
14475;DHT22;7323;50.848;4.334;2022-10-26T07:47:56;17.00;64.20
14475;DHT22;7323;50.848;4.334;2022-10-26T07:50:22;17.00;64.20
14475;DHT22;7323;50.848;4.334;2022-10-26T07:52:48;17.20;59.20
14475;DHT22;7323;50.848;4.334;2022-10-26T07:55:14;17.20;57.80
14475;DHT22;7323;50.848;4.334;2022-10-26T07:57:41;17.30;56.60
14475;DHT22;7323;50.848;4.334;2022-10-26T08:00:08;17.20;57.00
14475;DHT22;7323;50.848;4.334;2022-10-26T08:02:35;17.40;56.40
14475;DHT22;7323;50.848;4.334;2022-10-26T08:05:02;17.50;50.40
14475;DHT22;7323;50.848;4.334;2022-10-26T08:07:28;17.50;52.30
14475;DHT22;7323;50.848;4.334;2022-10-26T08:09:54;17.60;51.80
14475;DHT22;7323;50.848;4.334;2022-10-26T08:12:20;17.50;51.50
14475;DHT22;7323;50.848;4.334;2022-10-26T08:14:45;17.50;52.10
14475;DHT22;7323;50.848;4.334;2022-10-26T08:17:11;17.60;50.10
14475;DHT22;7323;50.848;4.334;2022-10-26T08:19:37;17.70;51.60
14475;DHT22;7323;50.848;4.334;2022-10-26T08:22:05;17.80;47.80
14475;DHT22;7323;50.848;4.334;2022-10-26T08:24:31;17.90;44.40
14475;DHT22;7323;50.848;4.334;2022-10-26T08:26:57;18.00;42.50
14475;DHT22;7323;50.848;4.334;2022-10-26T08:29:23;18.00;40.20
14475;DHT22;7323;50.848;4.334;2022-10-26T08:31:48;18.10;41.50
14475;DHT22;7323;50.848;4.334;2022-10-26T08:34:16;18.40;33.60
14475;DHT22;7323;50.848;4.334;2022-10-26T08:36:41;18.40;31.50
14475;DHT22;7323;50.848;4.334;2022-10-26T08:39:09;18.40;32.10
14475;DHT22;7323;50.848;4.334;2022-10-26T08:41:44;18.40;32.20
14475;DHT22;7323;50.848;4.334;2022-10-26T08:46:45;18.50;26.70
14475;DHT22;7323;50.848;4.334;2022-10-26T08:52:16;18.60;28.60
14475;DHT22;7323;50.848;4.334;2022-10-26T08:54:55;18.70;25.10
14475;DHT22;7323;50.848;4.334;2022-10-26T08:59:57;18.80;24.80
14475;DHT22;7323;50.848;4.334;2022-10-26T09:02:24;18.70;24.60
14475;DHT22;7323;50.848;4.334;2022-10-26T09:04:51;18.80;23.80
14475;DHT22;7323;50.848;4.334;2022-10-26T09:10:28;19.00;17.70
14475;DHT22;7323;50.848;4.334;2022-10-26T09:25:57;19.10;17.30
14475;DHT22;7323;50.848;4.334;2022-10-26T09:28:24;19.30;15.90
14475;DHT22;7323;50.848;4.334;2022-10-26T09:30:51;19.40;15.30
14475;DHT22;7323;50.848;4.334;2022-10-26T09:33:20;19.20;17.40
14475;DHT22;7323;50.848;4.334;2022-10-26T09:35:54;19.10;19.40
14475;DHT22;7323;50.848;4.334;2022-10-26T09:38:29;19.20;19.10
14475;DHT22;7323;50.848;4.334;2022-10-26T09:43:47;19.30;13.00
14475;DHT22;7323;50.848;4.334;2022-10-26T09:46:31;19.40;12.50
14475;DHT22;7323;50.848;4.334;2022-10-26T09:49:03;19.40;12.00
14475;DHT22;7323;50.848;4.334;2022-10-26T09:51:30;19.60;7.20
14475;DHT22;7323;50.848;4.334;2022-10-26T09:53:57;19.60;2.40
14475;DHT22;7323;50.848;4.334;2022-10-26T09:56:26;19.60;1.00
14475;DHT22;7323;50.848;4.334;2022-10-26T09:58:58;19.60;1.00
14475;DHT22;7323;50.848;4.334;2022-10-26T10:01:27;19.50;1.00
14475;DHT22;7323;50.848;4.334;2022-10-26T10:09:25;19.70;1.00
14475;DHT22;7323;50.848;4.334;2022-10-26T10:12:00;19.70;1.00
14475;DHT22;7323;50.848;4.334;2022-10-26T10:14:33;19.80;1.00
14475;DHT22;7323;50.848;4.334;2022-10-26T10:17:04;19.90;1.00
14475;DHT22;7323;50.848;4.334;2022-10-26T10:19:34;19.90;1.00
14475;DHT22;7323;50.848;4.334;2022-10-26T10:22:11;19.80;1.00
14475;DHT22;7323;50.848;4.334;2022-10-26T10:24:53;19.90;1.00
14475;DHT22;7323;50.848;4.334;2022-10-26T10:27:19;19.90;1.00
14475;DHT22;7323;50.848;4.334;2022-10-26T10:29:47;19.90;1.00
14475;DHT22;7323;50.848;4.334;2022-10-26T10:32:18;20.20;1.00
14475;DHT22;7323;50.848;4.334;2022-10-26T10:34:48;20.20;1.00
14475;DHT22;7323;50.848;4.334;2022-10-26T10:37:39;20.10;1.00
14475;DHT22;7323;50.848;4.334;2022-10-26T10:40:27;20.10;1.00
14475;DHT22;7323;50.848;4.334;2022-10-26T10:43:04;20.10;1.00
14475;DHT22;7323;50.848;4.334;2022-10-26T10:45:31;20.00;1.00
14475;DHT22;7323;50.848;4.334;2022-10-26T10:50:31;19.90;1.00
14475;DHT22;7323;50.848;4.334;2022-10-26T10:53:20;19.80;1.00
14475;DHT22;7323;50.848;4.334;2022-10-26T10:56:01;19.90;1.00
14475;DHT22;7323;50.848;4.334;2022-10-26T11:01:20;19.80;1.00
14475;DHT22;7323;50.848;4.334;2022-10-26T11:06:28;19.80;1.00
14475;DHT22;7323;50.848;4.334;2022-10-26T11:09:20;19.80;1.00
14475;DHT22;7323;50.848;4.334;2022-10-26T11:11:58;19.80;1.00
14475;DHT22;7323;50.848;4.334;2022-10-26T11:14:38;19.90;1.00
14475;DHT22;7323;50.848;4.334;2022-10-26T11:17:21;19.80;1.00
14475;DHT22;7323;50.848;4.334;2022-10-26T11:20:10;19.80;1.00
14475;DHT22;7323;50.848;4.334;2022-10-26T11:22:53;19.70;1.00
14475;DHT22;7323;50.848;4.334;2022-10-26T11:25:27;19.80;1.00
14475;DHT22;7323;50.848;4.334;2022-10-26T11:28:10;19.90;1.00
14475;DHT22;7323;50.848;4.334;2022-10-26T11:30:42;20.00;1.00
14475;DHT22;7323;50.848;4.334;2022-10-26T11:33:34;20.10;1.00
14475;DHT22;7323;50.848;4.334;2022-10-26T11:36:05;20.10;1.00
14475;DHT22;7323;50.848;4.334;2022-10-26T11:38:36;20.10;1.00
14475;DHT22;7323;50.848;4.334;2022-10-26T11:43:39;20.20;1.00
14475;DHT22;7323;50.848;4.334;2022-10-26T11:46:29;20.40;1.00
14475;DHT22;7323;50.848;4.334;2022-10-26T11:49:01;20.50;1.00
14475;DHT22;7323;50.848;4.334;2022-10-26T11:53:56;20.50;1.00
14475;DHT22;7323;50.848;4.334;2022-10-26T11:56:31;20.50;1.00
14475;DHT22;7323;50.848;4.334;2022-10-26T11:58:57;20.40;1.00
14475;DHT22;7323;50.848;4.334;2022-10-26T12:01:25;20.60;1.00
14475;DHT22;7323;50.848;4.334;2022-10-26T12:03:53;20.60;1.00
14475;DHT22;7323;50.848;4.334;2022-10-26T12:06:25;20.50;1.00
14475;DHT22;7323;50.848;4.334;2022-10-26T12:08:56;20.50;1.00
14475;DHT22;7323;50.848;4.334;2022-10-26T12:11:35;20.50;1.00
14475;DHT22;7323;50.848;4.334;2022-10-26T12:16:58;20.50;1.00
14475;DHT22;7323;50.848;4.334;2022-10-26T12:19:40;20.50;1.00
14475;DHT22;7323;50.848;4.334;2022-10-26T12:22:12;20.50;1.00
14475;DHT22;7323;50.848;4.334;2022-10-26T12:24:43;20.60;1.00
14475;DHT22;7323;50.848;4.334;2022-10-26T12:27:47;20.60;1.00
14475;DHT22;7323;50.848;4.334;2022-10-26T12:30:29;20.70;1.00
14475;DHT22;7323;50.848;4.334;2022-10-26T12:32:59;20.70;1.00
14475;DHT22;7323;50.848;4.334;2022-10-26T12:37:54;20.90;1.00
14475;DHT22;7323;50.848;4.334;2022-10-26T12:45:45;21.00;1.00
14475;DHT22;7323;50.848;4.334;2022-10-26T12:48:23;21.00;1.00
14475;DHT22;7323;50.848;4.334;2022-10-26T12:50:54;21.00;1.00
14475;DHT22;7323;50.848;4.334;2022-10-26T12:53:25;21.10;1.00
14475;DHT22;7323;50.848;4.334;2022-10-26T12:56:04;21.00;1.00
14475;DHT22;7323;50.848;4.334;2022-10-26T13:09:27;21.20;1.00
14475;DHT22;7323;50.848;4.334;2022-10-26T13:11:55;21.20;1.00
14475;DHT22;7323;50.848;4.334;2022-10-26T13:14:35;21.20;1.00
14475;DHT22;7323;50.848;4.334;2022-10-26T13:17:22;21.30;1.00
14475;DHT22;7323;50.848;4.334;2022-10-26T13:19:54;21.40;1.00
14475;DHT22;7323;50.848;4.334;2022-10-26T13:22:24;21.30;1.00
14475;DHT22;7323;50.848;4.334;2022-10-26T13:27:46;21.30;1.00
14475;DHT22;7323;50.848;4.334;2022-10-26T13:30:42;21.50;1.00
14475;DHT22;7323;50.848;4.334;2022-10-26T13:33:16;21.50;1.00
14475;DHT22;7323;50.848;4.334;2022-10-26T13:35:45;21.50;1.00
14475;DHT22;7323;50.848;4.334;2022-10-26T13:38:19;21.40;1.00
14475;DHT22;7323;50.848;4.334;2022-10-26T13:40:59;21.50;1.00
14475;DHT22;7323;50.848;4.334;2022-10-26T13:43:28;21.40;1.00
14475;DHT22;7323;50.848;4.334;2022-10-26T13:45:55;21.40;1.00
14475;DHT22;7323;50.848;4.334;2022-10-26T13:48:37;21.40;1.00
14475;DHT22;7323;50.848;4.334;2022-10-26T13:51:29;21.50;1.00
14475;DHT22;7323;50.848;4.334;2022-10-26T13:54:04;21.50;1.00
14475;DHT22;7323;50.848;4.334;2022-10-26T13:56:36;21.60;1.00
14475;DHT22;7323;50.848;4.334;2022-10-26T13:59:10;21.60;1.00
14475;DHT22;7323;50.848;4.334;2022-10-26T14:01:37;21.60;1.00
14475;DHT22;7323;50.848;4.334;2022-10-26T14:04:15;21.70;1.00
14475;DHT22;7323;50.848;4.334;2022-10-26T14:06:49;21.70;1.00
14475;DHT22;7323;50.848;4.334;2022-10-26T14:09:16;21.70;1.00
14475;DHT22;7323;50.848;4.334;2022-10-26T14:11:51;21.70;1.00
14475;DHT22;7323;50.848;4.334;2022-10-26T14:14:21;21.80;1.00
14475;DHT22;7323;50.848;4.334;2022-10-26T14:16:49;21.90;1.00
14475;DHT22;7323;50.848;4.334;2022-10-26T14:19:21;22.00;1.00
14475;DHT22;7323;50.848;4.334;2022-10-26T14:21:49;21.90;1.00
14475;DHT22;7323;50.848;4.334;2022-10-26T14:24:33;21.60;1.00
14475;DHT22;7323;50.848;4.334;2022-10-26T14:26:59;21.30;1.00
14475;DHT22;7323;50.848;4.334;2022-10-26T14:29:30;21.20;1.00
14475;DHT22;7323;50.848;4.334;2022-10-26T14:31:56;21.20;1.00
14475;DHT22;7323;50.848;4.334;2022-10-26T14:34:22;21.20;1.00
14475;DHT22;7323;50.848;4.334;2022-10-26T14:36:58;21.30;1.00
14475;DHT22;7323;50.848;4.334;2022-10-26T14:39:43;21.40;1.00
14475;DHT22;7323;50.848;4.334;2022-10-26T14:42:31;21.50;1.00
14475;DHT22;7323;50.848;4.334;2022-10-26T14:44:58;21.60;1.00
14475;DHT22;7323;50.848;4.334;2022-10-26T14:47:30;21.90;1.00
14475;DHT22;7323;50.848;4.334;2022-10-26T14:49:57;22.20;1.00
14475;DHT22;7323;50.848;4.334;2022-10-26T14:52:28;22.40;1.00
14475;DHT22;7323;50.848;4.334;2022-10-26T14:55:21;22.40;1.00
14475;DHT22;7323;50.848;4.334;2022-10-26T14:58:12;22.60;1.00
14475;DHT22;7323;50.848;4.334;2022-10-26T15:00:38;23.00;1.00
14475;DHT22;7323;50.848;4.334;2022-10-26T15:03:14;23.00;1.00
14475;DHT22;7323;50.848;4.334;2022-10-26T15:05:40;22.90;1.00
14475;DHT22;7323;50.848;4.334;2022-10-26T15:08:39;22.70;1.00
14475;DHT22;7323;50.848;4.334;2022-10-26T15:11:08;23.10;1.00
14475;DHT22;7323;50.848;4.334;2022-10-26T15:13:33;22.80;1.00
14475;DHT22;7323;50.848;4.334;2022-10-26T15:16:32;22.90;1.00
14475;DHT22;7323;50.848;4.334;2022-10-26T15:19:14;23.00;1.00
14475;DHT22;7323;50.848;4.334;2022-10-26T15:21:47;23.20;1.00
14475;DHT22;7323;50.848;4.334;2022-10-26T15:24:36;23.20;1.00
14475;DHT22;7323;50.848;4.334;2022-10-26T15:27:17;23.20;1.00
14475;DHT22;7323;50.848;4.334;2022-10-26T15:29:45;23.60;1.00
14475;DHT22;7323;50.848;4.334;2022-10-26T15:32:29;23.90;1.00
14475;DHT22;7323;50.848;4.334;2022-10-26T15:35:17;24.30;1.00
14475;DHT22;7323;50.848;4.334;2022-10-26T15:37:48;24.20;1.00
14475;DHT22;7323;50.848;4.334;2022-10-26T15:40:14;24.10;1.00
14475;DHT22;7323;50.848;4.334;2022-10-26T15:42:41;23.80;1.00
14475;DHT22;7323;50.848;4.334;2022-10-26T15:47:43;22.80;1.00
14475;DHT22;7323;50.848;4.334;2022-10-26T15:50:14;22.50;1.00
14475;DHT22;7323;50.848;4.334;2022-10-26T15:52:41;22.60;1.00
14475;DHT22;7323;50.848;4.334;2022-10-26T15:55:09;22.80;1.00
14475;DHT22;7323;50.848;4.334;2022-10-26T15:57:36;22.60;1.00
14475;DHT22;7323;50.848;4.334;2022-10-26T16:00:04;22.30;1.00
14475;DHT22;7323;50.848;4.334;2022-10-26T16:02:32;22.10;1.00
14475;DHT22;7323;50.848;4.334;2022-10-26T16:04:58;22.10;1.00
14475;DHT22;7323;50.848;4.334;2022-10-26T16:07:26;22.30;1.00
14475;DHT22;7323;50.848;4.334;2022-10-26T16:09:52;22.30;1.00
14475;DHT22;7323;50.848;4.334;2022-10-26T16:12:18;22.10;1.00
14475;DHT22;7323;50.848;4.334;2022-10-26T16:14:44;21.80;1.00
14475;DHT22;7323;50.848;4.334;2022-10-26T16:17:10;21.60;1.00
14475;DHT22;7323;50.848;4.334;2022-10-26T16:19:36;21.60;1.00
14475;DHT22;7323;50.848;4.334;2022-10-26T16:22:02;21.50;1.00
14475;DHT22;7323;50.848;4.334;2022-10-26T16:24:28;21.40;1.00
14475;DHT22;7323;50.848;4.334;2022-10-26T16:26:56;21.30;1.00
14475;DHT22;7323;50.848;4.334;2022-10-26T16:29:24;21.40;1.00
14475;DHT22;7323;50.848;4.334;2022-10-26T16:31:51;21.30;1.00
14475;DHT22;7323;50.848;4.334;2022-10-26T16:34:17;21.20;1.00
14475;DHT22;7323;50.848;4.334;2022-10-26T16:36:42;21.20;1.00
14475;DHT22;7323;50.848;4.334;2022-10-26T16:39:11;21.00;1.00
14475;DHT22;7323;50.848;4.334;2022-10-26T16:41:36;20.90;1.00
14475;DHT22;7323;50.848;4.334;2022-10-26T16:44:02;20.90;1.00
14475;DHT22;7323;50.848;4.334;2022-10-26T16:46:29;20.90;1.00
14475;DHT22;7323;50.848;4.334;2022-10-26T16:48:55;21.00;1.00
14475;DHT22;7323;50.848;4.334;2022-10-26T16:51:25;20.60;1.00
14475;DHT22;7323;50.848;4.334;2022-10-26T16:53:56;20.50;1.00
14475;DHT22;7323;50.848;4.334;2022-10-26T16:56:29;20.30;1.00
14475;DHT22;7323;50.848;4.334;2022-10-26T16:58:56;20.30;1.00
14475;DHT22;7323;50.848;4.334;2022-10-26T17:01:22;20.30;1.00
14475;DHT22;7323;50.848;4.334;2022-10-26T17:03:50;20.30;1.00
14475;DHT22;7323;50.848;4.334;2022-10-26T17:06:18;20.20;1.00
14475;DHT22;7323;50.848;4.334;2022-10-26T17:08:44;20.20;1.00
14475;DHT22;7323;50.848;4.334;2022-10-26T17:11:12;20.20;1.00
14475;DHT22;7323;50.848;4.334;2022-10-26T17:13:39;20.20;1.00
14475;DHT22;7323;50.848;4.334;2022-10-26T17:16:17;20.20;1.00
14475;DHT22;7323;50.848;4.334;2022-10-26T17:18:45;20.20;1.00
14475;DHT22;7323;50.848;4.334;2022-10-26T17:21:12;20.10;1.00
14475;DHT22;7323;50.848;4.334;2022-10-26T17:23:39;20.20;1.00
14475;DHT22;7323;50.848;4.334;2022-10-26T17:26:08;20.30;1.00
14475;DHT22;7323;50.848;4.334;2022-10-26T17:28:34;20.30;1.00
14475;DHT22;7323;50.848;4.334;2022-10-26T17:31:07;20.20;1.00
14475;DHT22;7323;50.848;4.334;2022-10-26T17:33:37;20.40;1.00
14475;DHT22;7323;50.848;4.334;2022-10-26T17:36:05;20.30;1.00
14475;DHT22;7323;50.848;4.334;2022-10-26T17:38:33;20.50;1.00
14475;DHT22;7323;50.848;4.334;2022-10-26T17:41:00;20.40;1.00
14475;DHT22;7323;50.848;4.334;2022-10-26T17:43:29;20.30;1.00
14475;DHT22;7323;50.848;4.334;2022-10-26T17:46:00;20.20;1.00
14475;DHT22;7323;50.848;4.334;2022-10-26T17:48:26;20.20;1.00
14475;DHT22;7323;50.848;4.334;2022-10-26T17:50:52;20.20;1.00
14475;DHT22;7323;50.848;4.334;2022-10-26T17:53:19;20.10;1.00
14475;DHT22;7323;50.848;4.334;2022-10-26T17:55:45;20.10;1.00
14475;DHT22;7323;50.848;4.334;2022-10-26T17:58:10;20.10;1.00
14475;DHT22;7323;50.848;4.334;2022-10-26T18:00:40;20.10;1.00
14475;DHT22;7323;50.848;4.334;2022-10-26T18:03:07;20.00;1.00
14475;DHT22;7323;50.848;4.334;2022-10-26T18:05:39;20.10;1.00
14475;DHT22;7323;50.848;4.334;2022-10-26T18:08:20;20.20;1.00
14475;DHT22;7323;50.848;4.334;2022-10-26T18:11:04;20.30;1.00
14475;DHT22;7323;50.848;4.334;2022-10-26T18:13:32;20.10;1.00
14475;DHT22;7323;50.848;4.334;2022-10-26T18:16:06;20.10;1.00
14475;DHT22;7323;50.848;4.334;2022-10-26T18:18:36;20.00;1.00